createdAt,value
2023-04-22T00:00:01.049Z,13.59
2023-04-22T00:00:11.020Z,13.57
2023-04-22T00:00:21.109Z,13.59
2023-04-22T00:00:31.150Z,13.57
2023-04-22T00:00:41.194Z,13.57
2023-04-22T00:00:51.197Z,13.57
2023-04-22T00:01:01.288Z,13.57
2023-04-22T00:01:11.316Z,13.55
2023-04-22T00:01:21.358Z,13.55
2023-04-22T00:01:31.366Z,13.55
2023-04-22T00:01:41.456Z,13.57
2023-04-22T00:01:51.493Z,13.57
2023-04-22T00:02:01.679Z,13.55
2023-04-22T00:02:11.654Z,13.55
2023-04-22T00:02:21.684Z,13.55
2023-04-22T00:02:31.795Z,13.55
2023-04-22T00:02:41.949Z,13.55
2023-04-22T00:02:52.046Z,13.55
2023-04-22T00:03:02.106Z,13.55
2023-04-22T00:03:12.187Z,13.55
2023-04-22T00:03:22.235Z,13.55
2023-04-22T00:03:32.260Z,13.55
2023-04-22T00:03:42.525Z,13.55
2023-04-22T00:03:52.550Z,13.57
2023-04-22T00:04:02.834Z,13.57
2023-04-22T00:04:12.810Z,13.57
2023-04-22T00:04:22.916Z,13.57
2023-04-22T00:04:32.931Z,13.57
2023-04-22T00:04:42.938Z,13.55
2023-04-22T00:04:53.001Z,13.55
2023-04-22T00:05:03.209Z,13.55
2023-04-22T00:05:13.116Z,13.55
2023-04-22T00:05:23.134Z,13.53
2023-04-22T00:05:33.242Z,13.55
2023-04-22T00:05:43.286Z,13.54
2023-04-22T00:05:53.349Z,13.54
2023-04-22T00:06:03.390Z,13.54
2023-04-22T00:06:13.418Z,13.54
2023-04-22T00:06:23.428Z,13.53
2023-04-22T00:06:33.437Z,13.54
2023-04-22T00:06:43.461Z,13.53
2023-04-22T00:06:53.470Z,13.54
2023-04-22T00:07:03.496Z,13.51
2023-04-22T00:07:13.527Z,13.53
2023-04-22T00:07:23.556Z,13.51
2023-04-22T00:07:33.579Z,13.53
2023-04-22T00:07:43.628Z,13.53
2023-04-22T00:07:53.645Z,13.53
2023-04-22T00:08:03.669Z,13.51
2023-04-22T00:08:13.685Z,13.53
2023-04-22T00:08:23.747Z,13.51
2023-04-22T00:08:33.766Z,13.51
2023-04-22T00:08:43.778Z,13.51
2023-04-22T00:08:53.798Z,13.50
2023-04-22T00:09:03.812Z,13.51
2023-04-22T00:09:13.870Z,13.51
2023-04-22T00:09:23.860Z,13.50
2023-04-22T00:09:33.871Z,13.50
2023-04-22T00:09:43.968Z,13.50
2023-04-22T00:09:54.008Z,13.50
2023-04-22T00:10:04.055Z,13.50
2023-04-22T00:10:14.078Z,13.50
2023-04-22T00:10:24.111Z,13.48
2023-04-22T00:10:34.124Z,13.48
2023-04-22T00:10:44.142Z,13.48
2023-04-22T00:10:54.148Z,13.48
2023-04-22T00:11:04.179Z,13.48
2023-04-22T00:11:14.201Z,13.48
2023-04-22T00:11:24.215Z,13.48
2023-04-22T00:11:34.251Z,13.48
2023-04-22T00:11:44.289Z,13.48
2023-04-22T00:11:54.321Z,13.50
2023-04-22T00:12:04.337Z,13.48
2023-04-22T00:12:14.415Z,13.48
2023-04-22T00:12:24.436Z,13.48
2023-04-22T00:12:34.476Z,13.48
2023-04-22T00:12:44.499Z,13.48
2023-04-22T00:12:54.518Z,13.48
2023-04-22T00:13:04.551Z,13.48
2023-04-22T00:13:14.571Z,13.48
2023-04-22T00:13:24.616Z,13.47
2023-04-22T00:13:34.625Z,13.48
2023-04-22T00:13:44.620Z,13.48
2023-04-22T00:13:54.644Z,13.48
2023-04-22T00:14:04.690Z,13.48
2023-04-22T00:14:14.777Z,13.47
2023-04-22T00:14:24.814Z,13.47
2023-04-22T00:14:34.831Z,13.47
2023-04-22T00:14:44.832Z,13.47
2023-04-22T00:14:54.863Z,13.47
2023-04-22T00:15:04.869Z,13.48
2023-04-22T00:15:14.885Z,13.47
2023-04-22T00:15:24.904Z,13.47
2023-04-22T00:15:34.942Z,13.46
2023-04-22T00:15:44.975Z,13.47
2023-04-22T00:15:55.017Z,13.46
2023-04-22T00:16:05.039Z,13.46
2023-04-22T00:16:15.134Z,13.46
2023-04-22T00:16:25.173Z,13.46
2023-04-22T00:16:35.241Z,13.47
2023-04-22T00:16:45.311Z,13.47
2023-04-22T00:16:55.302Z,13.46
2023-04-22T00:17:05.360Z,13.44
2023-04-22T00:17:15.360Z,13.46
2023-04-22T00:17:25.398Z,13.46
2023-04-22T00:17:35.442Z,13.46
2023-04-22T00:17:45.511Z,13.46
2023-04-22T00:17:55.623Z,13.47
2023-04-22T00:18:05.658Z,13.47
2023-04-22T00:18:15.690Z,13.47
2023-04-22T00:18:25.712Z,13.44
2023-04-22T00:18:35.749Z,13.47
2023-04-22T00:18:45.760Z,13.46
2023-04-22T00:18:55.785Z,13.46
2023-04-22T00:19:05.805Z,13.46
2023-04-22T00:19:15.833Z,13.46
2023-04-22T00:19:25.851Z,13.46
2023-04-22T00:19:36.043Z,13.46
2023-04-22T00:19:46.013Z,13.47
2023-04-22T00:19:56.047Z,13.46
2023-04-22T00:20:06.067Z,13.46
2023-04-22T00:20:16.086Z,13.44
2023-04-22T00:20:26.170Z,13.44
2023-04-22T00:20:36.212Z,13.44
2023-04-22T00:20:46.233Z,13.44
2023-04-22T00:20:56.275Z,13.44
2023-04-22T00:21:06.314Z,13.44
2023-04-22T00:21:16.356Z,13.44
2023-04-22T00:21:26.364Z,13.44
2023-04-22T00:21:36.382Z,13.43
2023-04-22T00:21:46.418Z,13.44
2023-04-22T00:21:56.440Z,13.43
2023-04-22T00:22:06.468Z,13.44
2023-04-22T00:22:16.480Z,13.43
2023-04-22T00:22:26.493Z,13.43
2023-04-22T00:22:36.564Z,13.44
2023-04-22T00:22:46.552Z,13.44
2023-04-22T00:22:56.581Z,13.43
2023-04-22T00:23:06.617Z,13.44
2023-04-22T00:23:16.634Z,13.43
2023-04-22T00:23:26.684Z,13.43
2023-04-22T00:23:36.695Z,13.43
2023-04-22T00:23:46.712Z,13.43
2023-04-22T00:23:56.749Z,13.43
2023-04-22T00:24:06.757Z,13.43
2023-04-22T00:24:16.776Z,13.39
2023-04-22T00:24:26.805Z,13.41
2023-04-22T00:24:36.832Z,13.41
2023-04-22T00:24:46.877Z,13.41
2023-04-22T00:24:56.904Z,13.39
2023-04-22T00:25:06.953Z,13.39
2023-04-22T00:25:17.042Z,13.38
2023-04-22T00:25:27.139Z,13.38
2023-04-22T00:25:37.215Z,13.39
2023-04-22T00:25:47.239Z,13.39
2023-04-22T00:25:57.230Z,13.36
2023-04-22T00:26:07.416Z,13.36
2023-04-22T00:26:17.419Z,13.38
2023-04-22T00:26:27.439Z,13.38
2023-04-22T00:26:37.452Z,13.38
2023-04-22T00:26:47.469Z,13.36
2023-04-22T00:26:57.476Z,13.36
2023-04-22T00:27:07.518Z,13.36
2023-04-22T00:27:17.512Z,13.36
2023-04-22T00:27:27.685Z,13.36
2023-04-22T00:27:37.695Z,13.36
2023-04-22T00:27:47.864Z,13.36
2023-04-22T00:27:57.845Z,13.36
2023-04-22T00:28:08.016Z,13.36
2023-04-22T00:28:18.032Z,13.36
2023-04-22T00:28:28.195Z,13.35
2023-04-22T00:28:38.221Z,13.35
2023-04-22T00:28:48.274Z,13.35
2023-04-22T00:28:58.283Z,13.35
2023-04-22T00:29:08.286Z,13.36
2023-04-22T00:29:18.463Z,13.35
2023-04-22T00:29:28.535Z,13.35
2023-04-22T00:29:38.754Z,13.36
2023-04-22T00:29:48.611Z,13.35
2023-04-22T00:29:58.798Z,13.35
2023-04-22T00:30:08.806Z,13.36
2023-04-22T00:30:18.993Z,13.35
2023-04-22T00:30:29.128Z,13.35
2023-04-22T00:30:39.300Z,13.36
2023-04-22T00:30:49.482Z,13.35
2023-04-22T00:30:59.659Z,13.35
2023-04-22T00:31:09.682Z,13.36
2023-04-22T00:31:19.703Z,13.35
2023-04-22T00:31:29.885Z,13.32
2023-04-22T00:31:39.861Z,13.36
2023-04-22T00:31:50.218Z,13.32
2023-04-22T00:32:00.140Z,13.35
2023-04-22T00:32:10.141Z,13.32
2023-04-22T00:32:20.296Z,13.32
2023-04-22T00:32:30.583Z,13.32
2023-04-22T00:32:40.585Z,13.32
2023-04-22T00:32:50.794Z,13.32
2023-04-22T00:33:00.929Z,13.32
2023-04-22T00:33:10.976Z,13.31
2023-04-22T00:33:20.985Z,13.31
2023-04-22T00:33:30.985Z,13.31
2023-04-22T00:33:40.992Z,13.31
2023-04-22T00:33:51.155Z,13.31
2023-04-22T00:34:01.315Z,13.31
2023-04-22T00:34:11.478Z,13.31
2023-04-22T00:34:21.488Z,13.29
2023-04-22T00:34:31.646Z,13.29
2023-04-22T00:34:41.801Z,13.29
2023-04-22T00:34:51.804Z,13.28
2023-04-22T00:35:01.962Z,13.29
2023-04-22T00:35:11.961Z,13.29
2023-04-22T00:35:22.147Z,13.27
2023-04-22T00:35:32.202Z,13.29
2023-04-22T00:35:42.163Z,13.28
2023-04-22T00:35:52.326Z,13.29
2023-04-22T00:36:02.329Z,13.29
2023-04-22T00:36:12.510Z,13.28
2023-04-22T00:36:22.671Z,13.28
2023-04-22T00:36:32.832Z,13.27
2023-04-22T00:36:42.982Z,13.29
2023-04-22T00:36:52.986Z,13.28
2023-04-22T00:37:03.027Z,13.28
2023-04-22T00:37:13.175Z,13.27
2023-04-22T00:37:23.210Z,13.25
2023-04-22T00:37:33.226Z,13.28
2023-04-22T00:37:43.396Z,13.27
2023-04-22T00:37:53.542Z,13.27
2023-04-22T00:38:03.547Z,13.25
2023-04-22T00:38:13.720Z,13.25
2023-04-22T00:38:23.728Z,13.27
2023-04-22T00:38:33.730Z,13.25
2023-04-22T00:38:43.728Z,13.25
2023-04-22T00:38:53.883Z,13.25
2023-04-22T00:39:03.992Z,13.25
2023-04-22T00:39:13.980Z,13.25
2023-04-22T00:39:23.965Z,13.25
2023-04-22T00:39:34.165Z,13.25
2023-04-22T00:39:44.158Z,13.22
2023-04-22T00:39:54.329Z,13.25
2023-04-22T00:40:04.327Z,13.25
2023-04-22T00:40:14.553Z,13.24
2023-04-22T00:40:24.539Z,13.24
2023-04-22T00:40:34.705Z,13.24
2023-04-22T00:40:44.701Z,13.22
2023-04-22T00:40:54.864Z,13.22
2023-04-22T00:41:05.030Z,13.24
2023-04-22T00:41:15.037Z,13.24
2023-04-22T00:41:25.034Z,13.22
2023-04-22T00:41:35.202Z,13.22
2023-04-22T00:41:45.211Z,13.22
2023-04-22T00:41:55.394Z,13.22
2023-04-22T00:42:05.389Z,13.22
2023-04-22T00:42:15.560Z,13.22
2023-04-22T00:42:25.573Z,13.21
2023-04-22T00:42:35.752Z,13.21
2023-04-22T00:42:45.749Z,13.21
2023-04-22T00:42:55.769Z,13.21
2023-04-22T00:43:05.934Z,13.21
2023-04-22T00:43:16.160Z,13.21
2023-04-22T00:43:26.181Z,13.21
2023-04-22T00:43:36.192Z,13.19
2023-04-22T00:43:46.213Z,13.21
2023-04-22T00:43:56.210Z,13.21
2023-04-22T00:44:06.207Z,13.21
2023-04-22T00:44:16.270Z,13.19
2023-04-22T00:44:26.424Z,13.21
2023-04-22T00:44:36.593Z,13.19
2023-04-22T00:44:46.763Z,13.21
2023-04-22T00:44:56.938Z,13.19
2023-04-22T00:45:07.160Z,13.19
2023-04-22T00:45:17.147Z,13.19
2023-04-22T00:45:27.304Z,13.17
2023-04-22T00:45:37.340Z,13.17
2023-04-22T00:45:47.344Z,13.17
2023-04-22T00:45:57.359Z,13.17
2023-04-22T00:46:07.357Z,13.17
2023-04-22T00:46:17.551Z,13.16
2023-04-22T00:46:27.625Z,13.17
2023-04-22T00:46:37.721Z,13.17
2023-04-22T00:46:47.756Z,13.17
2023-04-22T00:46:57.806Z,13.17
2023-04-22T00:47:07.845Z,13.17
2023-04-22T00:47:17.917Z,13.17
2023-04-22T00:47:27.962Z,13.19
2023-04-22T00:47:38.014Z,13.17
2023-04-22T00:47:48.198Z,13.17
2023-04-22T00:47:58.232Z,13.17
2023-04-22T00:48:08.265Z,13.16
2023-04-22T00:48:18.310Z,13.17
2023-04-22T00:48:28.954Z,13.14
2023-04-22T00:48:38.433Z,13.17
2023-04-22T00:48:48.429Z,13.14
2023-04-22T00:48:58.457Z,13.16
2023-04-22T00:49:08.469Z,13.14
2023-04-22T00:49:18.516Z,13.14
2023-04-22T00:49:28.542Z,13.16
2023-04-22T00:49:38.841Z,13.16
2023-04-22T00:49:48.620Z,13.13
2023-04-22T00:49:58.657Z,13.16
2023-04-22T00:50:08.720Z,13.14
2023-04-22T00:50:18.756Z,13.16
2023-04-22T00:50:28.797Z,13.16
2023-04-22T00:50:38.807Z,13.16
2023-04-22T00:50:48.834Z,13.14
2023-04-22T00:50:58.913Z,13.17
2023-04-22T00:51:09.021Z,13.16
2023-04-22T00:51:19.112Z,13.16
2023-04-22T00:51:29.150Z,13.17
2023-04-22T00:51:39.162Z,13.16
2023-04-22T00:51:49.183Z,13.16
2023-04-22T00:51:59.192Z,13.14
2023-04-22T00:52:09.212Z,13.14
2023-04-22T00:52:19.238Z,13.14
2023-04-22T00:52:29.252Z,13.14
2023-04-22T00:52:39.261Z,13.16
2023-04-22T00:52:49.310Z,13.13
2023-04-22T00:52:59.311Z,13.14
2023-04-22T00:53:09.320Z,13.16
2023-04-22T00:53:19.352Z,13.14
2023-04-22T00:53:29.360Z,13.14
2023-04-22T00:53:39.399Z,13.16
2023-04-22T00:53:49.410Z,13.14
2023-04-22T00:53:59.425Z,13.14
2023-04-22T00:54:09.450Z,13.14
2023-04-22T00:54:19.485Z,13.14
2023-04-22T00:54:29.496Z,13.14
2023-04-22T00:54:39.520Z,13.14
2023-04-22T00:54:49.545Z,13.13
2023-04-22T00:54:59.543Z,13.14
2023-04-22T00:55:09.567Z,13.13
2023-04-22T00:55:19.573Z,13.12
2023-04-22T00:55:29.578Z,13.12
2023-04-22T00:55:39.591Z,13.13
2023-04-22T00:55:49.609Z,13.13
2023-04-22T00:55:59.622Z,13.13
2023-04-22T00:56:09.700Z,13.13
2023-04-22T00:56:19.739Z,13.13
2023-04-22T00:56:29.766Z,13.13
2023-04-22T00:56:39.802Z,13.12
2023-04-22T00:56:49.827Z,13.12
2023-04-22T00:56:59.870Z,13.12
2023-04-22T00:57:09.888Z,13.12
2023-04-22T00:57:19.915Z,13.12
2023-04-22T00:57:29.937Z,13.12
2023-04-22T00:57:39.986Z,13.12
2023-04-22T00:57:50.011Z,13.10
2023-04-22T00:58:00.049Z,13.10
2023-04-22T00:58:10.049Z,13.10
2023-04-22T00:58:20.135Z,13.09
2023-04-22T00:58:30.123Z,13.09
2023-04-22T00:58:40.146Z,13.09
2023-04-22T00:58:50.267Z,13.07
2023-04-22T00:59:00.277Z,13.09
2023-04-22T00:59:10.280Z,13.07
2023-04-22T00:59:20.311Z,13.07
2023-04-22T00:59:30.324Z,13.07
2023-04-22T00:59:40.613Z,13.07
2023-04-22T00:59:50.358Z,13.07
2023-04-22T01:00:00.451Z,13.07
2023-04-22T01:00:10.450Z,13.07
2023-04-22T01:00:20.460Z,13.06
2023-04-22T01:00:30.602Z,13.07
2023-04-22T01:00:40.690Z,13.09
2023-04-22T01:00:50.693Z,13.07
2023-04-22T01:01:00.754Z,13.09
2023-04-22T01:01:10.843Z,13.07
2023-04-22T01:01:20.797Z,13.06
2023-04-22T01:01:30.978Z,13.06
2023-04-22T01:01:40.990Z,13.06
2023-04-22T01:01:51.040Z,13.06
2023-04-22T01:02:01.124Z,13.06
2023-04-22T01:02:11.184Z,13.07
2023-04-22T01:02:21.500Z,13.06
2023-04-22T01:02:31.559Z,13.06
2023-04-22T01:02:41.596Z,13.06
2023-04-22T01:02:51.729Z,13.06
2023-04-22T01:03:01.768Z,13.06
2023-04-22T01:03:11.766Z,13.06
2023-04-22T01:03:21.910Z,13.06
2023-04-22T01:03:31.988Z,13.04
2023-04-22T01:03:42.150Z,13.04
2023-04-22T01:03:52.356Z,13.06
2023-04-22T01:04:02.253Z,13.04
2023-04-22T01:04:12.481Z,13.04
2023-04-22T01:04:22.447Z,13.04
2023-04-22T01:04:32.294Z,13.04
2023-04-22T01:04:42.307Z,13.04
2023-04-22T01:04:52.337Z,13.04
2023-04-22T01:05:02.360Z,13.04
2023-04-22T01:05:12.368Z,13.03
2023-04-22T01:05:22.424Z,13.03
2023-04-22T01:05:32.460Z,13.03
2023-04-22T01:05:42.477Z,13.03
2023-04-22T01:05:52.503Z,13.03
2023-04-22T01:06:02.524Z,13.03
2023-04-22T01:06:12.562Z,13.03
2023-04-22T01:06:22.587Z,13.03
2023-04-22T01:06:32.655Z,13.01
2023-04-22T01:06:42.690Z,13.04
2023-04-22T01:06:52.727Z,13.03
2023-04-22T01:07:02.754Z,13.03
2023-04-22T01:07:12.942Z,13.03
2023-04-22T01:07:22.947Z,13.03
2023-04-22T01:07:32.964Z,13.03
2023-04-22T01:07:43.000Z,13.03
2023-04-22T01:07:53.014Z,13.03
2023-04-22T01:08:03.033Z,13.03
2023-04-22T01:08:13.057Z,13.03
2023-04-22T01:08:23.084Z,13.03
2023-04-22T01:08:33.145Z,13.04
2023-04-22T01:08:43.189Z,13.04
2023-04-22T01:08:53.215Z,13.03
2023-04-22T01:09:03.229Z,13.04
2023-04-22T01:09:13.261Z,13.03
2023-04-22T01:09:23.292Z,13.03
2023-04-22T01:09:33.284Z,13.04
2023-04-22T01:09:43.305Z,13.03
2023-04-22T01:09:53.326Z,13.03
2023-04-22T01:10:03.340Z,13.03
2023-04-22T01:10:13.391Z,13.03
2023-04-22T01:10:23.423Z,13.04
2023-04-22T01:10:33.430Z,13.01
2023-04-22T01:10:43.516Z,13.01
2023-04-22T01:10:53.549Z,13.03
2023-04-22T01:11:03.682Z,13.01
2023-04-22T01:11:13.720Z,13.01
2023-04-22T01:11:23.760Z,13.01
2023-04-22T01:11:33.796Z,13.01
2023-04-22T01:11:43.803Z,13.01
2023-04-22T01:11:53.980Z,12.99
2023-04-22T01:12:04.023Z,12.99
2023-04-22T01:12:14.059Z,12.99
2023-04-22T01:12:24.080Z,13.01
2023-04-22T01:12:34.152Z,12.99
2023-04-22T01:12:44.231Z,12.99
2023-04-22T01:12:54.288Z,12.99
2023-04-22T01:13:04.296Z,12.99
2023-04-22T01:13:14.316Z,13.01
2023-04-22T01:13:24.355Z,12.99
2023-04-22T01:13:34.363Z,12.99
2023-04-22T01:13:44.422Z,12.99
2023-04-22T01:13:54.426Z,12.99
2023-04-22T01:14:04.509Z,12.99
2023-04-22T01:14:14.526Z,12.99
2023-04-22T01:14:24.542Z,12.99
2023-04-22T01:14:34.559Z,12.99
2023-04-22T01:14:44.588Z,12.98
2023-04-22T01:14:54.608Z,12.99
2023-04-22T01:15:05.141Z,12.98
2023-04-22T01:15:14.703Z,12.98
2023-04-22T01:15:24.708Z,12.98
2023-04-22T01:15:34.742Z,12.98
2023-04-22T01:15:44.772Z,12.98
2023-04-22T01:15:54.808Z,12.98
2023-04-22T01:16:04.847Z,12.98
2023-04-22T01:16:14.877Z,12.98
2023-04-22T01:16:24.968Z,12.96
2023-04-22T01:16:34.989Z,12.96
2023-04-22T01:16:45.071Z,12.96
2023-04-22T01:16:55.133Z,12.95
2023-04-22T01:17:05.197Z,12.96
2023-04-22T01:17:15.182Z,12.95
2023-04-22T01:17:25.229Z,12.95
2023-04-22T01:17:35.292Z,12.96
2023-04-22T01:17:45.312Z,12.96
2023-04-22T01:17:55.374Z,12.95
2023-04-22T01:18:05.507Z,12.96
2023-04-22T01:18:15.519Z,12.94
2023-04-22T01:18:25.543Z,12.95
2023-04-22T01:18:35.585Z,12.95
2023-04-22T01:18:45.675Z,12.94
2023-04-22T01:18:55.694Z,12.94
2023-04-22T01:19:05.717Z,12.95
2023-04-22T01:19:15.741Z,12.94
2023-04-22T01:19:25.748Z,12.92
2023-04-22T01:19:35.781Z,12.94
2023-04-22T01:19:45.807Z,12.92
2023-04-22T01:19:55.838Z,12.94
2023-04-22T01:20:05.868Z,12.92
2023-04-22T01:20:15.869Z,12.92
2023-04-22T01:20:25.946Z,12.91
2023-04-22T01:20:35.967Z,12.92
2023-04-22T01:20:45.998Z,12.92
2023-04-22T01:20:56.021Z,12.91
2023-04-22T01:21:06.049Z,12.89
2023-04-22T01:21:16.061Z,12.91
2023-04-22T01:21:26.087Z,12.91
2023-04-22T01:21:36.091Z,12.89
2023-04-22T01:21:46.258Z,12.89
2023-04-22T01:21:56.251Z,12.89
2023-04-22T01:22:06.273Z,12.89
2023-04-22T01:22:16.333Z,12.91
2023-04-22T01:22:26.349Z,12.89
2023-04-22T01:22:36.394Z,12.89
2023-04-22T01:22:46.420Z,12.89
2023-04-22T01:22:56.441Z,12.88
2023-04-22T01:23:06.467Z,12.89
2023-04-22T01:23:16.490Z,12.88
2023-04-22T01:23:26.571Z,12.88
2023-04-22T01:23:36.560Z,12.88
2023-04-22T01:23:46.606Z,12.88
2023-04-22T01:23:56.756Z,12.87
2023-04-22T01:24:06.887Z,12.87
2023-04-22T01:24:17.062Z,12.87
2023-04-22T01:24:27.173Z,12.87
2023-04-22T01:24:37.313Z,12.87
2023-04-22T01:24:47.489Z,12.87
2023-04-22T01:24:57.625Z,12.87
2023-04-22T01:25:07.648Z,12.87
2023-04-22T01:25:17.788Z,12.85
2023-04-22T01:25:27.914Z,12.87
2023-04-22T01:25:38.058Z,12.85
2023-04-22T01:25:48.199Z,12.85
2023-04-22T01:25:58.326Z,12.85
2023-04-22T01:26:08.448Z,12.85
2023-04-22T01:26:18.596Z,12.84
2023-04-22T01:26:28.797Z,12.85
2023-04-22T01:26:38.923Z,12.85
2023-04-22T01:26:48.946Z,12.85
2023-04-22T01:26:58.984Z,12.85
2023-04-22T01:27:09.132Z,12.84
2023-04-22T01:27:19.186Z,12.85
2023-04-22T01:27:29.342Z,12.85
2023-04-22T01:27:39.505Z,12.84
2023-04-22T01:27:49.662Z,12.84
2023-04-22T01:27:59.699Z,12.85
2023-04-22T01:28:09.717Z,12.84
2023-04-22T01:28:19.760Z,12.84
2023-04-22T01:28:29.804Z,12.84
2023-04-22T01:28:39.862Z,12.84
2023-04-22T01:28:49.899Z,12.84
2023-04-22T01:28:59.936Z,12.84
2023-04-22T01:29:09.961Z,12.84
2023-04-22T01:29:20.057Z,12.84
2023-04-22T01:29:30.151Z,12.81
2023-04-22T01:29:40.480Z,12.84
2023-04-22T01:29:50.228Z,12.81
2023-04-22T01:30:00.267Z,12.81
2023-04-22T01:30:10.290Z,12.80
2023-04-22T01:30:20.329Z,12.81
2023-04-22T01:30:30.369Z,12.81
2023-04-22T01:30:40.464Z,12.80
2023-04-22T01:30:50.517Z,12.80
2023-04-22T01:31:00.584Z,12.81
2023-04-22T01:31:10.671Z,12.79
2023-04-22T01:31:20.719Z,12.79
2023-04-22T01:31:30.825Z,12.79
2023-04-22T01:31:40.856Z,12.80
2023-04-22T01:31:50.929Z,12.79
2023-04-22T01:32:01.055Z,12.80
2023-04-22T01:32:11.151Z,12.79
2023-04-22T01:32:21.159Z,12.79
2023-04-22T01:32:31.197Z,12.79
2023-04-22T01:32:41.436Z,12.80
2023-04-22T01:32:51.339Z,12.80
2023-04-22T01:33:01.624Z,12.80
2023-04-22T01:33:11.765Z,12.79
2023-04-22T01:33:21.636Z,12.80
2023-04-22T01:33:31.710Z,12.80
2023-04-22T01:33:41.807Z,12.80
2023-04-22T01:33:51.911Z,12.80
2023-04-22T01:34:01.952Z,12.79
2023-04-22T01:34:11.991Z,12.79
2023-04-22T01:34:22.035Z,12.79
2023-04-22T01:34:32.187Z,12.80
2023-04-22T01:34:42.226Z,12.80
2023-04-22T01:34:52.280Z,12.79
2023-04-22T01:35:02.329Z,12.77
2023-04-22T01:35:12.374Z,12.79
2023-04-22T01:35:22.419Z,12.79
2023-04-22T01:35:32.469Z,12.77
2023-04-22T01:35:42.508Z,12.77
2023-04-22T01:35:52.570Z,12.77
2023-04-22T01:36:02.607Z,12.76
2023-04-22T01:36:13.345Z,12.76
2023-04-22T01:36:22.724Z,12.76
2023-04-22T01:36:32.780Z,12.73
2023-04-22T01:36:42.821Z,12.74
2023-04-22T01:36:52.868Z,12.73
2023-04-22T01:37:02.961Z,12.73
2023-04-22T01:37:12.981Z,12.73
2023-04-22T01:37:23.017Z,12.73
2023-04-22T01:37:33.084Z,12.73
2023-04-22T01:37:43.161Z,12.73
2023-04-22T01:37:53.236Z,12.73
2023-04-22T01:38:03.267Z,12.73
2023-04-22T01:38:13.310Z,12.73
2023-04-22T01:38:23.325Z,12.73
2023-04-22T01:38:33.391Z,12.73
2023-04-22T01:38:43.433Z,12.73
2023-04-22T01:38:53.480Z,12.74
2023-04-22T01:39:03.525Z,12.73
2023-04-22T01:39:13.600Z,12.71
2023-04-22T01:39:23.665Z,12.71
2023-04-22T01:39:33.733Z,12.73
2023-04-22T01:39:43.772Z,12.70
2023-04-22T01:39:53.806Z,12.70
2023-04-22T01:40:03.845Z,12.71
2023-04-22T01:40:13.878Z,12.71
2023-04-22T01:40:24.050Z,12.73
2023-04-22T01:40:34.211Z,12.71
2023-04-22T01:40:44.380Z,12.73
2023-04-22T01:40:54.537Z,12.71
2023-04-22T01:41:04.707Z,12.71
2023-04-22T01:41:14.714Z,12.71
2023-04-22T01:41:24.881Z,12.73
2023-04-22T01:41:35.033Z,12.71
2023-04-22T01:41:45.178Z,12.70
2023-04-22T01:41:55.189Z,12.71
2023-04-22T01:42:05.343Z,12.71
2023-04-22T01:42:15.458Z,12.71
2023-04-22T01:42:25.629Z,12.70
2023-04-22T01:42:35.666Z,12.70
2023-04-22T01:42:45.784Z,12.70
2023-04-22T01:42:55.948Z,12.70
2023-04-22T01:43:06.127Z,12.70
2023-04-22T01:43:16.137Z,12.70
2023-04-22T01:43:26.326Z,12.70
2023-04-22T01:43:36.302Z,12.70
2023-04-22T01:43:46.482Z,12.70
2023-04-22T01:43:56.482Z,12.69
2023-04-22T01:44:06.501Z,12.67
2023-04-22T01:44:16.705Z,12.67
2023-04-22T01:44:26.680Z,12.67
2023-04-22T01:44:36.840Z,12.69
2023-04-22T01:44:47.004Z,12.69
2023-04-22T01:44:57.161Z,12.67
2023-04-22T01:45:07.301Z,12.67
2023-04-22T01:45:17.496Z,12.67
2023-04-22T01:45:27.684Z,12.67
2023-04-22T01:45:37.756Z,12.67
2023-04-22T01:45:47.795Z,12.66
2023-04-22T01:45:57.933Z,12.66
2023-04-22T01:46:07.969Z,12.66
2023-04-22T01:46:18.157Z,12.67
2023-04-22T01:46:28.115Z,12.67
2023-04-22T01:46:38.299Z,12.66
2023-04-22T01:46:48.233Z,12.66
2023-04-22T01:46:58.393Z,12.63
2023-04-22T01:47:08.556Z,12.66
2023-04-22T01:47:18.725Z,12.66
2023-04-22T01:47:28.874Z,12.66
2023-04-22T01:47:39.082Z,12.66
2023-04-22T01:47:49.124Z,12.66
2023-04-22T01:47:59.141Z,12.66
2023-04-22T01:48:09.153Z,12.66
2023-04-22T01:48:19.147Z,12.63
2023-04-22T01:48:29.158Z,12.63
2023-04-22T01:48:39.314Z,12.63
2023-04-22T01:48:49.489Z,12.63
2023-04-22T01:48:59.685Z,12.63
2023-04-22T01:49:09.699Z,12.63
2023-04-22T01:49:19.694Z,12.62
2023-04-22T01:49:29.850Z,12.63
2023-04-22T01:49:40.351Z,12.63
2023-04-22T01:49:50.125Z,12.63
2023-04-22T01:50:00.290Z,12.63
2023-04-22T01:50:10.422Z,12.62
2023-04-22T01:50:20.460Z,12.62
2023-04-22T01:50:30.624Z,12.62
2023-04-22T01:50:40.779Z,12.63
2023-04-22T01:50:50.779Z,12.61
2023-04-22T01:51:00.942Z,12.61
2023-04-22T01:51:11.109Z,12.61
2023-04-22T01:51:21.289Z,12.62
2023-04-22T01:51:31.429Z,12.62
2023-04-22T01:51:41.444Z,12.62
2023-04-22T01:51:51.440Z,12.61
2023-04-22T01:52:01.654Z,12.61
2023-04-22T01:52:11.639Z,12.59
2023-04-22T01:52:21.794Z,12.62
2023-04-22T01:52:31.802Z,12.62
2023-04-22T01:52:41.979Z,12.61
2023-04-22T01:52:51.965Z,12.61
2023-04-22T01:53:01.985Z,12.59
2023-04-22T01:53:12.027Z,12.59
2023-04-22T01:53:22.001Z,12.61
2023-04-22T01:53:32.017Z,12.61
2023-04-22T01:53:42.200Z,12.61
2023-04-22T01:53:52.248Z,12.59
2023-04-22T01:54:02.310Z,12.61
2023-04-22T01:54:12.367Z,12.61
2023-04-22T01:54:22.397Z,12.61
2023-04-22T01:54:32.449Z,12.61
2023-04-22T01:54:42.480Z,12.59
2023-04-22T01:54:52.531Z,12.61
2023-04-22T01:55:02.575Z,12.61
2023-04-22T01:55:12.624Z,12.59
2023-04-22T01:55:22.683Z,12.59
2023-04-22T01:55:32.721Z,12.59
2023-04-22T01:55:42.815Z,12.59
2023-04-22T01:55:52.833Z,12.58
2023-04-22T01:56:02.878Z,12.59
2023-04-22T01:56:12.943Z,12.58
2023-04-22T01:56:22.991Z,12.58
2023-04-22T01:56:33.045Z,12.58
2023-04-22T01:56:43.129Z,12.58
2023-04-22T01:56:53.200Z,12.59
2023-04-22T01:57:03.221Z,12.59
2023-04-22T01:57:13.315Z,12.58
2023-04-22T01:57:23.355Z,12.59
2023-04-22T01:57:33.347Z,12.56
2023-04-22T01:57:43.385Z,12.56
2023-04-22T01:57:53.438Z,12.56
2023-04-22T01:58:03.589Z,12.56
2023-04-22T01:58:13.640Z,12.56
2023-04-22T01:58:23.707Z,12.56
2023-04-22T01:58:33.773Z,12.56
2023-04-22T01:58:43.832Z,12.55
2023-04-22T01:58:54.025Z,12.56
2023-04-22T01:59:03.887Z,12.55
2023-04-22T01:59:13.951Z,12.55
2023-04-22T01:59:24.025Z,12.55
2023-04-22T01:59:34.079Z,12.55
2023-04-22T01:59:44.120Z,12.55
2023-04-22T01:59:54.173Z,12.56
2023-04-22T02:00:04.244Z,12.56
2023-04-22T02:00:14.289Z,12.56
2023-04-22T02:00:24.341Z,12.56
2023-04-22T02:00:34.401Z,12.55
2023-04-22T02:00:44.422Z,12.56
2023-04-22T02:00:54.477Z,12.55
2023-04-22T02:01:04.613Z,12.55
2023-04-22T02:01:14.704Z,12.55
2023-04-22T02:01:24.762Z,12.55
2023-04-22T02:01:34.858Z,12.55
2023-04-22T02:01:44.998Z,12.56
2023-04-22T02:01:55.083Z,12.55
2023-04-22T02:02:05.149Z,12.54
2023-04-22T02:02:15.194Z,12.54
2023-04-22T02:02:25.320Z,12.54
2023-04-22T02:02:35.391Z,12.54
2023-04-22T02:02:45.445Z,12.52
2023-04-22T02:02:55.539Z,12.52
2023-04-22T02:03:05.634Z,12.52
2023-04-22T02:03:15.806Z,12.52
2023-04-22T02:03:25.950Z,12.52
2023-04-22T02:03:35.847Z,12.52
2023-04-22T02:03:46.070Z,12.51
2023-04-22T02:03:56.053Z,12.51
2023-04-22T02:04:06.057Z,12.52
2023-04-22T02:04:16.126Z,12.52
2023-04-22T02:04:26.229Z,12.52
2023-04-22T02:04:36.289Z,12.51
2023-04-22T02:04:46.316Z,12.51
2023-04-22T02:04:56.349Z,12.51
2023-04-22T02:05:06.481Z,12.49
2023-04-22T02:05:16.403Z,12.52
2023-04-22T02:05:26.424Z,12.52
2023-04-22T02:05:36.460Z,12.51
2023-04-22T02:05:46.497Z,12.52
2023-04-22T02:05:56.535Z,12.51
2023-04-22T02:06:06.571Z,12.49
2023-04-22T02:06:16.604Z,12.52
2023-04-22T02:06:26.629Z,12.51
2023-04-22T02:06:36.668Z,12.51
2023-04-22T02:06:46.668Z,12.51
2023-04-22T02:06:56.699Z,12.51
2023-04-22T02:07:06.747Z,12.51
2023-04-22T02:07:16.771Z,12.51
2023-04-22T02:07:26.817Z,12.51
2023-04-22T02:07:36.841Z,12.49
2023-04-22T02:07:46.898Z,12.49
2023-04-22T02:07:56.934Z,12.49
2023-04-22T02:08:06.979Z,12.48
2023-04-22T02:08:17.058Z,12.48
2023-04-22T02:08:27.166Z,12.46
2023-04-22T02:08:37.181Z,12.46
2023-04-22T02:08:47.221Z,12.46
2023-04-22T02:08:57.292Z,12.48
2023-04-22T02:09:07.358Z,12.44
2023-04-22T02:09:17.404Z,12.46
2023-04-22T02:09:27.442Z,12.44